KWMC/WMC METAR and TAF weather

Enter ICAO airport designator
Station Type Date Time Source
KWMC METAR 2020/07/03 13:56 UTC NOAA

KWMC 031356Z AUTO 00000KT 10SM CLR 15/M02 A3006 RMK AO2 SLP132 T01501017


Station Type Date Time Source
KWMC Decoded METAR 2020/07/03 13:56 UTC NOAA

WINNEMUCCA MUNICIPAL AIRPORT, NV, United States (KWMC) 40-54N 117-48W 1310M
Jul 03, 2020 - 09:56 AM EDT / 2020.07.03 1356 UTC
Wind: Calm:0
Visibility: 10 mile(s):0
Sky conditions: clear
Temperature: 59.0 F (15.0 C)
Dew Point: 28.9 F (-1.7 C)
Relative Humidity: 31%
Pressure (altimeter): 30.06 in. Hg (1017 hPa)
ob: KWMC 031356Z AUTO 00000KT 10SM CLR 15/M02 A3006 RMK AO2 SLP132 T01501017
cycle: 14

Station Type Date Time Source
KWMC TAF 2020/07/03 12:28 UTC NOAA

TAF KWMC 031126Z 0312/0412 VRB04KT P6SM FEW200
FM031900 25010G20KT P6SM SKC
FM040300 27006KT P6SM SKC

Example: see airport list